createdAt,value
2019-04-19T00:01:48.971Z,10.24
2019-04-19T00:04:16.156Z,10.19
2019-04-19T00:07:10.691Z,10.11
2019-04-19T00:09:43.623Z,7.12
2019-04-19T00:12:18.018Z,10.00
2019-04-19T00:14:37.902Z,9.74
2019-04-19T00:17:13.916Z,9.64
2019-04-19T00:19:55.552Z,9.64
2019-04-19T00:22:29.161Z,9.92
2019-04-19T00:24:43.719Z,10.16
2019-04-19T00:27:13.989Z,10.03
2019-04-19T00:29:52.903Z,10.09
2019-04-19T00:32:28.319Z,10.20
2019-04-19T00:34:46.368Z,10.14
2019-04-19T00:37:16.466Z,10.29
2019-04-19T00:40:18.186Z,4.18
2019-04-19T00:43:01.718Z,10.10
2019-04-19T00:45:41.673Z,10.07
2019-04-19T00:48:14.622Z,9.79
2019-04-19T00:50:48.288Z,9.73
2019-04-19T00:53:14.867Z,9.61
2019-04-19T00:55:44.109Z,9.54
2019-04-19T00:58:12.398Z,9.51
2019-04-19T01:00:40.331Z,9.66
2019-04-19T01:03:14.338Z,9.33
2019-04-19T01:05:52.421Z,9.44
2019-04-19T01:08:19.004Z,9.61
2019-04-19T01:11:02.510Z,9.92
2019-04-19T01:13:35.483Z,10.13
2019-04-19T01:16:01.394Z,10.23
2019-04-19T01:18:28.783Z,10.18
2019-04-19T01:20:50.128Z,10.01
2019-04-19T01:23:20.937Z,9.87
2019-04-19T01:25:55.005Z,10.02
2019-04-19T01:28:25.487Z,10.11
2019-04-19T01:30:52.948Z,9.88
2019-04-19T01:33:36.576Z,9.36
2019-04-19T01:36:04.309Z,8.83
2019-04-19T01:38:40.867Z,8.78
2019-04-19T01:41:22.067Z,9.01
2019-04-19T01:43:56.186Z,9.14
2019-04-19T01:46:49.011Z,9.28
2019-04-19T01:49:21.037Z,9.47
2019-04-19T01:52:18.122Z,9.49
2019-04-19T01:54:47.735Z,9.61
2019-04-19T01:57:05.432Z,9.59
2019-04-19T01:59:40.024Z,9.35
2019-04-19T02:02:11.672Z,9.48
2019-04-19T02:04:36.449Z,9.52
2019-04-19T02:07:12.500Z,9.53
2019-04-19T02:09:55.192Z,9.35
2019-04-19T02:12:23.664Z,9.16
2019-04-19T02:14:48.486Z,8.85
2019-04-19T02:17:13.646Z,8.92
2019-04-19T02:19:51.050Z,9.17
2019-04-19T02:22:21.052Z,9.48
2019-04-19T02:24:49.241Z,9.53
2019-04-19T02:27:17.998Z,9.58
2019-04-19T02:29:52.801Z,9.56
2019-04-19T02:32:39.421Z,9.62
2019-04-19T02:35:11.196Z,9.45
2019-04-19T02:37:43.818Z,9.14
2019-04-19T02:42:44.479Z,9.31
2019-04-19T02:45:21.350Z,9.07
2019-04-19T02:48:00.539Z,8.88
2019-04-19T02:50:21.654Z,8.72
2019-04-19T02:55:24.976Z,8.57
2019-04-19T02:58:06.553Z,8.29
2019-04-19T03:00:58.592Z,7.83
2019-04-19T03:03:22.906Z,7.80
2019-04-19T03:05:54.287Z,7.55
2019-04-19T03:08:06.102Z,7.25
2019-04-19T03:10:49.959Z,7.50
2019-04-19T03:13:21.534Z,7.35
2019-04-19T03:15:55.733Z,7.26
2019-04-19T03:18:30.678Z,7.04
2019-04-19T03:20:50.669Z,6.94
2019-04-19T03:23:23.442Z,7.00
2019-04-19T03:25:55.738Z,6.80
2019-04-19T03:28:22.104Z,6.76
2019-04-19T03:33:44.137Z,6.42
2019-04-19T03:36:05.412Z,6.42
2019-04-19T03:38:33.650Z,6.42
2019-04-19T03:41:09.138Z,6.26
2019-04-19T03:43:57.095Z,6.29
2019-04-19T03:46:29.180Z,6.34
2019-04-19T03:48:47.532Z,6.62
2019-04-19T03:51:15.372Z,6.38
2019-04-19T03:53:50.231Z,6.26
2019-04-19T03:56:30.049Z,6.52
2019-04-19T03:58:34.061Z,6.93
2019-04-19T04:01:04.584Z,7.55
2019-04-19T04:03:38.487Z,7.76
2019-04-19T04:06:06.238Z,7.83
2019-04-19T04:08:45.193Z,7.63
2019-04-19T04:11:29.798Z,7.70
2019-04-19T04:14:15.007Z,8.05
2019-04-19T04:16:53.780Z,9.46
2019-04-19T04:19:23.069Z,10.41
2019-04-19T04:21:54.353Z,11.28
2019-04-19T04:24:30.049Z,11.71
2019-04-19T04:27:05.760Z,12.20
2019-04-19T04:29:34.485Z,12.49
2019-04-19T04:32:09.607Z,12.89
2019-04-19T04:34:40.973Z,12.59
2019-04-19T04:37:16.787Z,12.16
2019-04-19T04:39:32.406Z,11.25
2019-04-19T04:42:11.190Z,11.60
2019-04-19T04:45:03.694Z,12.99
2019-04-19T04:47:55.970Z,13.94
2019-04-19T04:50:57.735Z,13.34
2019-04-19T04:53:10.937Z,13.10
2019-04-19T04:55:54.980Z,12.66
2019-04-19T04:58:23.133Z,12.57
2019-04-19T05:00:53.935Z,12.55
2019-04-19T05:03:40.037Z,12.45
2019-04-19T05:06:09.686Z,12.23
2019-04-19T05:08:38.920Z,12.13
2019-04-19T05:11:13.980Z,12.66
2019-04-19T05:13:47.245Z,12.35
2019-04-19T05:16:25.114Z,12.84
2019-04-19T05:18:40.151Z,13.10
2019-04-19T05:21:18.066Z,13.06
2019-04-19T05:23:55.462Z,13.56
2019-04-19T05:26:29.268Z,14.13
2019-04-19T05:28:47.757Z,14.22
2019-04-19T05:31:08.192Z,14.20
2019-04-19T05:33:47.682Z,13.94
2019-04-19T05:36:24.727Z,14.31
2019-04-19T05:39:17.307Z,14.78
2019-04-19T05:42:12.081Z,14.60
2019-04-19T05:45:09.735Z,14.47
2019-04-19T05:47:26.106Z,14.37
2019-04-19T05:50:00.856Z,15.01
2019-04-19T05:52:35.766Z,15.39
2019-04-19T05:54:45.093Z,15.41
2019-04-19T05:57:38.492Z,14.84
2019-04-19T05:59:54.848Z,14.59
2019-04-19T06:02:26.398Z,14.62
2019-04-19T06:05:10.119Z,13.94
2019-04-19T06:07:35.634Z,14.49
2019-04-19T06:09:50.114Z,14.85
2019-04-19T06:12:25.125Z,15.14
2019-04-19T06:15:13.645Z,15.14
2019-04-19T06:18:06.980Z,15.32
2019-04-19T06:20:38.415Z,15.38
2019-04-19T06:23:14.362Z,15.37
2019-04-19T06:25:57.242Z,15.68
2019-04-19T06:28:25.031Z,15.11
2019-04-19T06:30:45.477Z,15.34
2019-04-19T06:33:19.886Z,15.01
2019-04-19T06:35:40.433Z,15.16
2019-04-19T06:38:01.386Z,15.15
2019-04-19T06:40:34.191Z,15.80
2019-04-19T06:43:09.740Z,15.80
2019-04-19T06:45:50.385Z,16.85
2019-04-19T06:48:11.377Z,16.84
2019-04-19T06:50:41.245Z,16.97
2019-04-19T06:53:07.958Z,16.76
2019-04-19T06:55:44.122Z,16.98
2019-04-19T06:58:16.025Z,17.08
2019-04-19T07:00:54.588Z,17.91
2019-04-19T07:03:12.722Z,17.71
2019-04-19T07:05:55.585Z,18.03
2019-04-19T07:11:06.271Z,17.92
2019-04-19T07:13:31.597Z,17.73
2019-04-19T07:16:14.520Z,17.42
2019-04-19T07:18:36.123Z,18.24
2019-04-19T07:21:11.994Z,17.94
2019-04-19T07:23:38.588Z,16.54
2019-04-19T07:26:15.903Z,17.59
2019-04-19T07:28:27.080Z,16.79
2019-04-19T07:30:59.096Z,16.88
2019-04-19T07:33:36.111Z,18.23
2019-04-19T07:36:12.228Z,18.36
2019-04-19T07:38:46.479Z,18.53
2019-04-19T07:41:16.664Z,17.90
2019-04-19T07:44:02.489Z,17.21
2019-04-19T07:46:40.095Z,16.34
2019-04-19T07:48:55.510Z,16.47
2019-04-19T07:51:30.929Z,16.75
2019-04-19T07:53:57.186Z,17.37
2019-04-19T07:56:38.955Z,18.01
2019-04-19T07:59:30.607Z,18.19
2019-04-19T08:02:03.847Z,17.80
2019-04-19T08:04:48.886Z,17.54
2019-04-19T08:07:01.892Z,17.68
2019-04-19T08:29:27.897Z,19.08
2019-04-19T08:31:44.866Z,18.93
2019-04-19T08:34:20.676Z,19.17
2019-04-19T08:36:53.360Z,19.53
2019-04-19T08:40:38.190Z,20.20
2019-04-19T08:42:10.985Z,19.45
2019-04-19T08:44:36.261Z,18.52
2019-04-19T08:47:21.273Z,17.04
2019-04-19T08:49:49.932Z,18.09
2019-04-19T08:52:31.790Z,19.28
2019-04-19T08:55:21.797Z,19.19
2019-04-19T08:57:32.296Z,17.42
2019-04-19T09:00:25.956Z,18.66
2019-04-19T09:02:45.384Z,17.28
2019-04-19T09:05:18.737Z,18.63
2019-04-19T09:07:57.554Z,17.79
2019-04-19T09:10:31.791Z,17.77
2019-04-19T09:13:08.280Z,18.61
2019-04-19T09:15:24.092Z,19.55
2019-04-19T09:18:21.493Z,20.70
2019-04-19T09:20:34.073Z,20.41
2019-04-19T09:23:04.638Z,20.69
2019-04-19T09:26:00.467Z,19.66
2019-04-19T09:31:05.653Z,20.51
2019-04-19T09:33:28.129Z,20.35
2019-04-19T09:35:59.083Z,20.53
2019-04-19T09:38:41.128Z,21.37
2019-04-19T09:41:00.724Z,21.83
2019-04-19T09:43:39.549Z,21.62
2019-04-19T09:45:57.654Z,21.41
2019-04-19T09:48:50.409Z,19.71
2019-04-19T09:51:14.380Z,20.39
2019-04-19T09:53:51.932Z,20.19
2019-04-19T09:56:26.061Z,19.50
2019-04-19T09:58:46.459Z,19.06
2019-04-19T10:01:08.675Z,19.31
2019-04-19T10:03:46.974Z,18.91
2019-04-19T10:06:10.792Z,17.82
2019-04-19T10:08:40.326Z,18.87
2019-04-19T10:11:10.522Z,20.06
2019-04-19T10:13:40.154Z,20.54
2019-04-19T10:16:30.537Z,20.14
2019-04-19T10:19:05.783Z,20.16
2019-04-19T10:21:37.036Z,20.87
2019-04-19T10:24:11.712Z,21.38
2019-04-19T10:26:46.543Z,20.73
2019-04-19T10:29:23.356Z,20.85
2019-04-19T10:31:53.616Z,21.38
2019-04-19T10:34:22.850Z,21.76
2019-04-19T10:36:55.344Z,21.68
2019-04-19T10:39:25.845Z,21.60
2019-04-19T10:41:56.367Z,21.68
2019-04-19T10:44:27.163Z,21.27
2019-04-19T10:46:58.660Z,19.75
2019-04-19T10:49:36.278Z,19.86
2019-04-19T10:52:05.199Z,19.26
2019-04-19T10:54:34.618Z,20.32
2019-04-19T10:57:29.776Z,19.76
2019-04-19T11:00:01.588Z,20.70
2019-04-19T11:02:34.493Z,21.78
2019-04-19T11:05:07.049Z,22.40
2019-04-19T11:07:39.522Z,22.11
2019-04-19T11:10:09.710Z,21.57
2019-04-19T11:12:40.685Z,21.10
2019-04-19T11:15:10.793Z,21.05
2019-04-19T11:17:41.448Z,20.99
2019-04-19T11:20:22.693Z,20.62
2019-04-19T11:22:42.206Z,20.69
2019-04-19T11:25:14.649Z,21.27
2019-04-19T11:27:44.911Z,22.84
2019-04-19T11:30:32.944Z,21.59
2019-04-19T11:33:07.041Z,21.92
2019-04-19T11:35:43.425Z,22.38
2019-04-19T11:38:13.308Z,23.09
2019-04-19T11:40:42.887Z,22.06
2019-04-19T11:43:13.468Z,22.25
2019-04-19T11:45:44.029Z,22.04
2019-04-19T11:48:13.510Z,22.62
2019-04-19T11:50:42.859Z,23.09
2019-04-19T11:53:34.406Z,21.92
2019-04-19T11:56:22.706Z,22.17
2019-04-19T11:58:56.192Z,21.30
2019-04-19T12:01:30.041Z,20.31
2019-04-19T12:04:00.453Z,20.10
2019-04-19T12:06:30.253Z,21.14
2019-04-19T12:09:00.533Z,21.93
2019-04-19T12:11:30.572Z,20.89
2019-04-19T12:14:00.047Z,22.71
2019-04-19T12:16:29.411Z,23.10
2019-04-19T12:19:00.044Z,22.06
2019-04-19T12:21:29.608Z,21.81
2019-04-19T12:24:00.304Z,21.33
2019-04-19T12:26:29.750Z,20.88
2019-04-19T12:29:01.305Z,20.18
2019-04-19T12:31:30.184Z,20.11
2019-04-19T12:33:59.712Z,21.50
2019-04-19T12:36:29.263Z,21.92
2019-04-19T12:38:58.863Z,22.02
2019-04-19T12:41:28.252Z,22.50
2019-04-19T12:43:58.037Z,22.25
2019-04-19T12:46:28.677Z,22.27
2019-04-19T12:48:58.469Z,22.06
2019-04-19T12:51:28.099Z,22.33
2019-04-19T12:53:58.225Z,22.35
2019-04-19T12:56:27.661Z,22.23
2019-04-19T12:58:57.882Z,21.07
2019-04-19T13:01:39.795Z,20.94
2019-04-19T13:04:12.861Z,20.36
2019-04-19T13:06:50.398Z,19.96
2019-04-19T13:09:21.362Z,19.44
2019-04-19T13:11:50.734Z,18.82
2019-04-19T13:14:20.063Z,18.82
2019-04-19T13:16:50.501Z,18.81
2019-04-19T13:19:20.810Z,18.81
2019-04-19T13:21:50.348Z,18.77
2019-04-19T13:24:20.422Z,18.92
2019-04-19T13:26:49.947Z,18.80
2019-04-19T13:29:19.737Z,18.61
2019-04-19T13:31:49.155Z,18.25
2019-04-19T13:34:19.036Z,18.42
2019-04-19T13:37:07.441Z,18.47
2019-04-19T13:40:12.226Z,18.70
2019-04-19T13:42:41.855Z,18.98
2019-04-19T13:45:20.979Z,18.91
2019-04-19T13:47:42.946Z,18.70
2019-04-19T13:50:22.110Z,18.43
2019-04-19T13:52:44.378Z,18.08
2019-04-19T13:55:14.802Z,17.90
2019-04-19T13:57:44.254Z,17.78
2019-04-19T14:00:20.413Z,17.83
2019-04-19T14:02:49.894Z,17.88
2019-04-19T14:05:19.838Z,17.83
2019-04-19T14:07:49.221Z,17.62
2019-04-19T14:10:19.116Z,17.75
2019-04-19T14:12:49.216Z,17.56
2019-04-19T14:15:18.586Z,17.37
2019-04-19T14:17:47.913Z,17.24
2019-04-19T14:20:27.540Z,17.12
2019-04-19T14:22:49.696Z,17.01
2019-04-19T14:25:19.437Z,17.14
2019-04-19T14:27:49.088Z,17.37
2019-04-19T14:30:19.406Z,17.32
2019-04-19T14:32:49.527Z,17.23
2019-04-19T14:35:19.651Z,17.20
2019-04-19T14:37:50.059Z,17.22
2019-04-19T14:40:19.825Z,17.31
2019-04-19T14:42:49.181Z,17.24
2019-04-19T14:45:21.706Z,17.19
2019-04-19T14:47:51.190Z,17.17
2019-04-19T14:50:21.064Z,17.08
2019-04-19T14:52:51.356Z,16.99
2019-04-19T14:55:21.165Z,16.86
2019-04-19T14:57:51.970Z,16.80
2019-04-19T15:00:23.257Z,16.82
2019-04-19T15:03:00.778Z,16.68
2019-04-19T15:05:33.975Z,16.65
2019-04-19T15:08:04.454Z,16.67
2019-04-19T15:10:33.957Z,16.60
2019-04-19T15:13:03.407Z,16.61
2019-04-19T15:15:33.609Z,16.68
2019-04-19T15:18:04.361Z,16.80
2019-04-19T15:20:34.070Z,16.93
2019-04-19T15:23:04.424Z,17.08
2019-04-19T15:25:34.709Z,17.14
2019-04-19T15:28:04.573Z,17.17
2019-04-19T15:30:35.055Z,17.19
2019-04-19T15:33:04.640Z,17.14
2019-04-19T15:35:33.937Z,17.05
2019-04-19T15:38:03.670Z,16.96
2019-04-19T15:40:34.208Z,16.90
2019-04-19T15:43:03.749Z,16.86
2019-04-19T15:45:35.245Z,16.79
2019-04-19T15:48:04.897Z,16.75
2019-04-19T15:50:34.346Z,16.75
2019-04-19T15:53:04.138Z,16.67
2019-04-19T15:55:33.635Z,16.62
2019-04-19T15:58:04.202Z,16.58
2019-04-19T16:00:46.358Z,16.59
2019-04-19T16:03:34.604Z,16.55
2019-04-19T16:06:25.953Z,16.50
2019-04-19T16:09:15.181Z,16.49
2019-04-19T16:12:05.905Z,16.45
2019-04-19T16:14:35.672Z,16.40
2019-04-19T16:17:07.255Z,16.30
2019-04-19T16:19:36.814Z,16.25
2019-04-19T16:22:07.308Z,16.17
2019-04-19T16:24:37.283Z,16.10
2019-04-19T16:27:06.931Z,16.04
2019-04-19T16:29:43.248Z,16.02
2019-04-19T16:32:07.388Z,15.95
2019-04-19T16:34:36.724Z,15.89
2019-04-19T16:37:06.374Z,15.82
2019-04-19T16:39:35.733Z,15.76
2019-04-19T16:42:05.129Z,15.66
2019-04-19T16:44:36.297Z,15.59
2019-04-19T16:47:05.773Z,15.57
2019-04-19T16:49:36.199Z,15.48
2019-04-19T16:52:06.919Z,15.39
2019-04-19T16:54:36.430Z,15.33
2019-04-19T16:57:15.967Z,15.26
2019-04-19T16:59:37.711Z,15.24
2019-04-19T17:02:07.224Z,15.21
2019-04-19T17:04:36.750Z,15.15
2019-04-19T17:07:06.772Z,15.10
2019-04-19T17:09:36.596Z,15.04
2019-04-19T17:12:07.438Z,14.96
2019-04-19T17:14:36.961Z,14.90
2019-04-19T17:17:16.710Z,14.84
2019-04-19T17:19:52.978Z,14.82
2019-04-19T17:22:36.816Z,14.78
2019-04-19T17:25:08.276Z,14.79
2019-04-19T17:27:38.893Z,14.79
2019-04-19T17:30:10.402Z,14.78
2019-04-19T17:32:39.841Z,14.81
2019-04-19T17:35:12.153Z,14.81
2019-04-19T17:37:42.300Z,14.82
2019-04-19T17:40:12.200Z,14.80
2019-04-19T17:42:42.344Z,14.81
2019-04-19T17:45:12.011Z,14.78
2019-04-19T17:47:43.785Z,14.77
2019-04-19T17:50:12.538Z,14.79
2019-04-19T17:52:42.331Z,14.37
2019-04-19T17:55:20.783Z,13.89
2019-04-19T17:57:43.191Z,13.49
2019-04-19T18:00:12.840Z,13.22
2019-04-19T18:02:43.375Z,12.93
2019-04-19T18:05:13.945Z,12.77
2019-04-19T18:07:47.238Z,12.48
2019-04-19T18:10:18.310Z,12.31
2019-04-19T18:12:47.491Z,12.18
2019-04-19T18:15:17.270Z,12.07
2019-04-19T18:17:53.946Z,12.00
2019-04-19T18:20:20.033Z,11.83
2019-04-19T18:23:00.604Z,11.67
2019-04-19T18:25:22.049Z,11.56
2019-04-19T18:27:56.593Z,11.43
2019-04-19T18:30:24.181Z,11.35
2019-04-19T18:32:58.337Z,11.29
2019-04-19T18:35:30.873Z,11.17
2019-04-19T18:37:59.068Z,11.12
2019-04-19T18:40:29.044Z,11.08
2019-04-19T18:43:13.524Z,11.11
2019-04-19T18:45:32.204Z,11.01
2019-04-19T18:48:01.177Z,10.95
2019-04-19T18:50:32.920Z,10.91
2019-04-19T18:53:12.240Z,10.93
2019-04-19T18:55:38.407Z,10.60
2019-04-19T18:58:04.487Z,10.62
2019-04-19T19:00:41.261Z,10.07
2019-04-19T19:03:07.120Z,9.51
2019-04-19T19:05:44.076Z,9.05
2019-04-19T19:08:16.957Z,8.88
2019-04-19T19:10:46.523Z,8.90
2019-04-19T19:13:12.133Z,8.87
2019-04-19T19:15:46.700Z,8.68
2019-04-19T19:18:12.987Z,8.59
2019-04-19T19:20:50.793Z,8.53
2019-04-19T19:23:25.642Z,8.50
2019-04-19T19:25:55.079Z,8.49
2019-04-19T19:28:20.018Z,8.49
2019-04-19T19:30:49.096Z,8.48
2019-04-19T19:33:22.100Z,8.48
2019-04-19T19:35:55.500Z,8.53
2019-04-19T19:38:26.212Z,8.60
2019-04-19T19:41:07.209Z,8.70
2019-04-19T19:43:41.074Z,8.78
2019-04-19T19:46:19.095Z,8.84
2019-04-19T19:48:56.609Z,8.92
2019-04-19T19:51:25.429Z,8.93
2019-04-19T19:54:15.433Z,8.98
2019-04-19T19:58:36.839Z,8.85
2019-04-19T20:01:17.123Z,8.88
2019-04-19T20:03:38.666Z,8.88
2019-04-19T20:06:09.657Z,8.87
2019-04-19T20:08:39.217Z,8.83
2019-04-19T20:11:06.213Z,8.73
2019-04-19T20:13:41.389Z,8.68
2019-04-19T20:16:08.231Z,8.59
2019-04-19T20:18:41.964Z,8.51
2019-04-19T20:21:12.336Z,8.46
2019-04-19T20:23:55.302Z,8.43
2019-04-19T20:26:20.348Z,8.43
2019-04-19T20:28:43.132Z,8.41
2019-04-19T20:31:15.936Z,8.39
2019-04-19T20:33:50.991Z,8.35
2019-04-19T20:36:14.839Z,8.41
2019-04-19T20:38:50.735Z,8.48
2019-04-19T20:41:16.416Z,8.55
2019-04-19T20:43:57.168Z,8.62
2019-04-19T20:46:21.871Z,8.64
2019-04-19T20:48:54.062Z,8.60
2019-04-19T20:51:40.349Z,8.60
2019-04-19T20:54:10.471Z,8.61
2019-04-19T20:56:51.367Z,8.56
2019-04-19T20:59:01.902Z,8.60
2019-04-19T21:01:32.818Z,8.58
2019-04-19T21:04:05.953Z,8.62
2019-04-19T21:06:36.721Z,8.74
2019-04-19T21:09:05.396Z,8.80
2019-04-19T21:11:40.976Z,8.88
2019-04-19T21:14:07.120Z,8.91
2019-04-19T21:16:37.499Z,8.95
2019-04-19T21:19:09.594Z,8.82
2019-04-19T21:21:41.024Z,8.82
2019-04-19T21:24:11.941Z,8.89
2019-04-19T21:26:41.490Z,8.79
2019-04-19T21:29:18.261Z,8.82
2019-04-19T21:31:47.757Z,8.86
2019-04-19T21:34:15.633Z,8.83
2019-04-19T21:36:53.052Z,8.83
2019-04-19T21:39:18.350Z,9.06
2019-04-19T21:41:48.607Z,9.43
2019-04-19T21:44:24.563Z,9.54
2019-04-19T21:46:54.134Z,9.54
2019-04-19T21:49:24.789Z,9.35
2019-04-19T21:51:57.924Z,9.26
2019-04-19T21:54:26.448Z,9.37
2019-04-19T21:56:56.321Z,9.60
2019-04-19T21:59:30.252Z,9.44
2019-04-19T22:01:57.208Z,9.29
2019-04-19T22:04:27.535Z,9.59
2019-04-19T22:07:01.109Z,9.58
2019-04-19T22:09:28.839Z,9.47
2019-04-19T22:11:58.892Z,9.28
2019-04-19T22:14:32.888Z,9.19
2019-04-19T22:17:01.015Z,9.12
2019-04-19T22:19:34.981Z,9.08
2019-04-19T22:22:01.429Z,9.12
2019-04-19T22:24:34.155Z,9.04
2019-04-19T22:27:03.101Z,9.04
2019-04-19T22:29:33.577Z,9.09
2019-04-19T22:32:08.491Z,9.20
2019-04-19T22:34:34.714Z,9.33
2019-04-19T22:37:06.420Z,9.49
2019-04-19T22:39:35.159Z,9.86
2019-04-19T22:42:04.628Z,10.04
2019-04-19T22:44:34.648Z,9.74
2019-04-19T22:47:04.063Z,9.73
2019-04-19T22:49:39.057Z,9.75
2019-04-19T22:52:04.790Z,9.53
2019-04-19T22:54:34.960Z,9.75
2019-04-19T22:57:13.561Z,9.85
2019-04-19T22:59:35.828Z,9.91
2019-04-19T23:02:14.519Z,9.81
2019-04-19T23:04:49.308Z,9.92
2019-04-19T23:07:16.576Z,9.95
2019-04-19T23:09:46.407Z,10.15
2019-04-19T23:12:16.599Z,10.34
2019-04-19T23:14:52.049Z,10.31
2019-04-19T23:17:28.126Z,10.42
2019-04-19T23:19:53.739Z,10.10
2019-04-19T23:22:30.686Z,10.12
2019-04-19T23:25:00.034Z,10.18
2019-04-19T23:27:37.957Z,9.76
2019-04-19T23:30:15.145Z,9.94
2019-04-19T23:32:41.181Z,10.48
2019-04-19T23:35:10.542Z,10.57
2019-04-19T23:37:41.772Z,10.49
2019-04-19T23:40:11.402Z,10.35
2019-04-19T23:42:42.335Z,10.00
2019-04-19T23:45:12.607Z,9.84
2019-04-19T23:47:46.464Z,9.77
2019-04-19T23:50:13.231Z,10.05
2019-04-19T23:52:48.622Z,10.51
2019-04-19T23:55:14.631Z,10.65
2019-04-19T23:57:48.513Z,10.65
